sensor_id;sensor_type;location;lat;lon;timestamp;temperature;humidity
6486;DHT22;3276;48.490;9.222;2022-10-28T00:03:32;12.50;31.10
6486;DHT22;3276;48.490;9.222;2022-10-28T00:06:03;12.50;31.40
6486;DHT22;3276;48.490;9.222;2022-10-28T00:08:28;12.40;31.90
6486;DHT22;3276;48.490;9.222;2022-10-28T00:11:02;12.40;32.40
6486;DHT22;3276;48.490;9.222;2022-10-28T00:13:27;12.50;33.10
6486;DHT22;3276;48.490;9.222;2022-10-28T00:15:53;12.40;32.60
6486;DHT22;3276;48.490;9.222;2022-10-28T00:18:18;12.40;33.10
6486;DHT22;3276;48.490;9.222;2022-10-28T00:20:44;12.40;33.80
6486;DHT22;3276;48.490;9.222;2022-10-28T00:23:09;12.40;33.10
6486;DHT22;3276;48.490;9.222;2022-10-28T00:25:35;12.40;33.10
6486;DHT22;3276;48.490;9.222;2022-10-28T00:28:00;12.30;33.00
6486;DHT22;3276;48.490;9.222;2022-10-28T00:30:26;12.30;33.00
6486;DHT22;3276;48.490;9.222;2022-10-28T00:32:52;12.30;33.00
6486;DHT22;3276;48.490;9.222;2022-10-28T00:35:17;12.20;32.90
6486;DHT22;3276;48.490;9.222;2022-10-28T00:37:43;12.20;32.90
6486;DHT22;3276;48.490;9.222;2022-10-28T00:40:09;12.20;33.40
6486;DHT22;3276;48.490;9.222;2022-10-28T00:42:34;12.20;33.40
6486;DHT22;3276;48.490;9.222;2022-10-28T00:45:01;12.20;32.90
6486;DHT22;3276;48.490;9.222;2022-10-28T00:52:55;12.20;32.90
6486;DHT22;3276;48.490;9.222;2022-10-28T00:55:23;12.20;33.10
6486;DHT22;3276;48.490;9.222;2022-10-28T00:57:49;12.20;32.90
6486;DHT22;3276;48.490;9.222;2022-10-28T01:00:21;12.20;32.90
6486;DHT22;3276;48.490;9.222;2022-10-28T01:02:48;12.10;32.80
6486;DHT22;3276;48.490;9.222;2022-10-28T01:05:16;12.00;34.80
6486;DHT22;3276;48.490;9.222;2022-10-28T01:07:43;12.00;35.30
6486;DHT22;3276;48.490;9.222;2022-10-28T01:10:10;12.00;34.90
6486;DHT22;3276;48.490;9.222;2022-10-28T01:12:44;12.00;34.90
6486;DHT22;3276;48.490;9.222;2022-10-28T01:15:18;12.00;34.80
6486;DHT22;3276;48.490;9.222;2022-10-28T01:23:34;12.10;34.30
6486;DHT22;3276;48.490;9.222;2022-10-28T01:31:44;11.90;35.30
6486;DHT22;3276;48.490;9.222;2022-10-28T01:42:04;11.80;37.00
6486;DHT22;3276;48.490;9.222;2022-10-28T01:45:12;11.80;37.00
6486;DHT22;3276;48.490;9.222;2022-10-28T01:50:20;11.70;37.70
6486;DHT22;3276;48.490;9.222;2022-10-28T01:52:49;11.60;37.60
6486;DHT22;3276;48.490;9.222;2022-10-28T01:55:25;11.60;37.60
6486;DHT22;3276;48.490;9.222;2022-10-28T01:57:53;11.50;37.50
6486;DHT22;3276;48.490;9.222;2022-10-28T02:00:19;11.50;37.80
6486;DHT22;3276;48.490;9.222;2022-10-28T02:02:47;11.50;39.10
6486;DHT22;3276;48.490;9.222;2022-10-28T02:13:40;11.40;37.80
6486;DHT22;3276;48.490;9.222;2022-10-28T02:19:17;11.40;38.60
6486;DHT22;3276;48.490;9.222;2022-10-28T02:24:58;11.40;38.30
6486;DHT22;3276;48.490;9.222;2022-10-28T02:30:16;11.30;39.50
6486;DHT22;3276;48.490;9.222;2022-10-28T02:32:48;11.30;38.90
6486;DHT22;3276;48.490;9.222;2022-10-28T02:35:21;11.20;38.60
6486;DHT22;3276;48.490;9.222;2022-10-28T02:37:51;11.20;38.40
6486;DHT22;3276;48.490;9.222;2022-10-28T02:40:21;11.20;38.60
6486;DHT22;3276;48.490;9.222;2022-10-28T02:42:51;11.10;39.30
6486;DHT22;3276;48.490;9.222;2022-10-28T02:45:21;11.20;39.40
6486;DHT22;3276;48.490;9.222;2022-10-28T02:47:51;11.20;38.70
6486;DHT22;3276;48.490;9.222;2022-10-28T02:50:22;11.20;39.10
6486;DHT22;3276;48.490;9.222;2022-10-28T02:52:54;11.10;38.30
6486;DHT22;3276;48.490;9.222;2022-10-28T02:55:23;11.10;38.60
6486;DHT22;3276;48.490;9.222;2022-10-28T02:57:51;11.10;38.80
6486;DHT22;3276;48.490;9.222;2022-10-28T03:00:20;11.10;38.90
6486;DHT22;3276;48.490;9.222;2022-10-28T03:02:46;11.10;39.10
6486;DHT22;3276;48.490;9.222;2022-10-28T03:05:12;11.10;38.80
6486;DHT22;3276;48.490;9.222;2022-10-28T03:07:38;11.10;39.50
6486;DHT22;3276;48.490;9.222;2022-10-28T03:10:04;11.10;39.20
6486;DHT22;3276;48.490;9.222;2022-10-28T03:12:30;11.10;39.10
6486;DHT22;3276;48.490;9.222;2022-10-28T03:14:55;11.10;40.00
6486;DHT22;3276;48.490;9.222;2022-10-28T03:17:21;11.10;39.10
6486;DHT22;3276;48.490;9.222;2022-10-28T03:19:46;11.10;39.00
6486;DHT22;3276;48.490;9.222;2022-10-28T03:22:12;11.10;39.80
6486;DHT22;3276;48.490;9.222;2022-10-28T03:24:37;11.10;38.80
6486;DHT22;3276;48.490;9.222;2022-10-28T03:27:03;11.10;39.50
6486;DHT22;3276;48.490;9.222;2022-10-28T03:29:28;11.10;40.30
6486;DHT22;3276;48.490;9.222;2022-10-28T03:31:54;11.20;39.60
6486;DHT22;3276;48.490;9.222;2022-10-28T03:34:19;11.20;39.60
6486;DHT22;3276;48.490;9.222;2022-10-28T03:36:45;11.30;39.20
6486;DHT22;3276;48.490;9.222;2022-10-28T03:39:10;11.40;39.50
6486;DHT22;3276;48.490;9.222;2022-10-28T03:41:36;11.40;39.30
6486;DHT22;3276;48.490;9.222;2022-10-28T03:44:02;11.50;39.10
6486;DHT22;3276;48.490;9.222;2022-10-28T03:46:27;11.50;39.10
6486;DHT22;3276;48.490;9.222;2022-10-28T03:48:53;11.50;39.20
6486;DHT22;3276;48.490;9.222;2022-10-28T03:51:18;11.50;39.20
6486;DHT22;3276;48.490;9.222;2022-10-28T03:53:44;11.60;39.00
6486;DHT22;3276;48.490;9.222;2022-10-28T03:56:10;11.60;39.10
6486;DHT22;3276;48.490;9.222;2022-10-28T03:58:36;11.70;39.20
6486;DHT22;3276;48.490;9.222;2022-10-28T04:01:01;11.70;37.80
6486;DHT22;3276;48.490;9.222;2022-10-28T04:03:27;11.70;37.70
6486;DHT22;3276;48.490;9.222;2022-10-28T04:05:53;11.80;37.00
6486;DHT22;3276;48.490;9.222;2022-10-28T04:08:19;11.90;36.40
6486;DHT22;3276;48.490;9.222;2022-10-28T04:10:45;11.90;36.30
6486;DHT22;3276;48.490;9.222;2022-10-28T04:13:11;11.90;36.50
6486;DHT22;3276;48.490;9.222;2022-10-28T04:15:37;11.90;36.70
6486;DHT22;3276;48.490;9.222;2022-10-28T04:18:03;12.00;37.00
6486;DHT22;3276;48.490;9.222;2022-10-28T04:20:29;12.00;36.80
6486;DHT22;3276;48.490;9.222;2022-10-28T04:22:54;12.00;36.50
6486;DHT22;3276;48.490;9.222;2022-10-28T04:25:21;12.10;36.20
6486;DHT22;3276;48.490;9.222;2022-10-28T04:27:46;12.20;35.40
6486;DHT22;3276;48.490;9.222;2022-10-28T04:30:12;12.30;35.00
6486;DHT22;3276;48.490;9.222;2022-10-28T04:32:39;12.30;35.30
6486;DHT22;3276;48.490;9.222;2022-10-28T04:35:05;12.30;35.70
6486;DHT22;3276;48.490;9.222;2022-10-28T04:37:30;12.30;35.70
6486;DHT22;3276;48.490;9.222;2022-10-28T04:39:56;12.30;35.60
6486;DHT22;3276;48.490;9.222;2022-10-28T04:42:22;12.40;35.70
6486;DHT22;3276;48.490;9.222;2022-10-28T04:44:48;12.30;35.80
6486;DHT22;3276;48.490;9.222;2022-10-28T04:47:14;12.40;35.50
6486;DHT22;3276;48.490;9.222;2022-10-28T04:49:40;12.50;34.70
6486;DHT22;3276;48.490;9.222;2022-10-28T04:52:06;12.50;35.00
6486;DHT22;3276;48.490;9.222;2022-10-28T04:54:31;12.50;34.30
6486;DHT22;3276;48.490;9.222;2022-10-28T04:56:57;12.60;34.60
6486;DHT22;3276;48.490;9.222;2022-10-28T04:59:22;12.50;34.40
6486;DHT22;3276;48.490;9.222;2022-10-28T05:01:48;12.60;34.40
6486;DHT22;3276;48.490;9.222;2022-10-28T05:04:14;12.60;34.80
6486;DHT22;3276;48.490;9.222;2022-10-28T05:06:39;12.70;34.20
6486;DHT22;3276;48.490;9.222;2022-10-28T05:09:05;12.70;34.50
6486;DHT22;3276;48.490;9.222;2022-10-28T05:11:30;12.70;34.20
6486;DHT22;3276;48.490;9.222;2022-10-28T05:13:56;12.70;34.20
6486;DHT22;3276;48.490;9.222;2022-10-28T05:16:21;12.70;35.00
6486;DHT22;3276;48.490;9.222;2022-10-28T05:18:47;12.80;33.40
6486;DHT22;3276;48.490;9.222;2022-10-28T05:21:13;12.70;33.70
6486;DHT22;3276;48.490;9.222;2022-10-28T05:23:38;12.70;33.40
6486;DHT22;3276;48.490;9.222;2022-10-28T05:26:04;12.60;33.20
6486;DHT22;3276;48.490;9.222;2022-10-28T05:28:29;12.60;34.00
6486;DHT22;3276;48.490;9.222;2022-10-28T05:30:55;12.50;33.10
6486;DHT22;3276;48.490;9.222;2022-10-28T05:33:21;12.40;33.40
6486;DHT22;3276;48.490;9.222;2022-10-28T05:35:46;12.40;33.70
6486;DHT22;3276;48.490;9.222;2022-10-28T05:38:12;12.40;33.70
6486;DHT22;3276;48.490;9.222;2022-10-28T05:40:38;12.50;32.90
6486;DHT22;3276;48.490;9.222;2022-10-28T05:43:03;12.60;33.30
6486;DHT22;3276;48.490;9.222;2022-10-28T05:45:29;12.50;33.30
6486;DHT22;3276;48.490;9.222;2022-10-28T05:47:56;12.50;34.10
6486;DHT22;3276;48.490;9.222;2022-10-28T05:50:22;12.60;34.20
6486;DHT22;3276;48.490;9.222;2022-10-28T05:52:52;12.60;34.70
6486;DHT22;3276;48.490;9.222;2022-10-28T05:55:18;12.70;35.20
6486;DHT22;3276;48.490;9.222;2022-10-28T05:57:48;12.70;35.40
6486;DHT22;3276;48.490;9.222;2022-10-28T06:00:16;12.80;35.20
6486;DHT22;3276;48.490;9.222;2022-10-28T06:02:41;12.80;35.30
6486;DHT22;3276;48.490;9.222;2022-10-28T06:05:08;12.90;34.50
6486;DHT22;3276;48.490;9.222;2022-10-28T06:07:34;13.00;35.00
6486;DHT22;3276;48.490;9.222;2022-10-28T06:10:01;13.10;33.70
6486;DHT22;3276;48.490;9.222;2022-10-28T06:12:27;13.20;33.80
6486;DHT22;3276;48.490;9.222;2022-10-28T06:14:52;13.20;33.80
6486;DHT22;3276;48.490;9.222;2022-10-28T06:17:18;13.20;33.80
6486;DHT22;3276;48.490;9.222;2022-10-28T06:19:43;13.20;33.80
6486;DHT22;3276;48.490;9.222;2022-10-28T06:22:09;13.20;33.80
6486;DHT22;3276;48.490;9.222;2022-10-28T06:24:35;13.20;33.80
6486;DHT22;3276;48.490;9.222;2022-10-28T06:27:01;13.20;33.80
6486;DHT22;3276;48.490;9.222;2022-10-28T06:29:26;13.20;33.80
6486;DHT22;3276;48.490;9.222;2022-10-28T06:31:52;13.20;33.80
6486;DHT22;3276;48.490;9.222;2022-10-28T06:34:17;13.30;33.90
6486;DHT22;3276;48.490;9.222;2022-10-28T06:36:43;13.30;33.90
6486;DHT22;3276;48.490;9.222;2022-10-28T06:39:08;13.30;34.60
6486;DHT22;3276;48.490;9.222;2022-10-28T06:41:34;13.30;33.90
6486;DHT22;3276;48.490;9.222;2022-10-28T06:44:00;13.30;33.90
6486;DHT22;3276;48.490;9.222;2022-10-28T06:46:25;13.30;33.90
6486;DHT22;3276;48.490;9.222;2022-10-28T06:48:53;13.40;33.90
6486;DHT22;3276;48.490;9.222;2022-10-28T06:51:18;13.50;34.00
6486;DHT22;3276;48.490;9.222;2022-10-28T06:53:48;13.50;33.00
6486;DHT22;3276;48.490;9.222;2022-10-28T06:56:13;13.60;32.20
6486;DHT22;3276;48.490;9.222;2022-10-28T06:58:39;13.60;32.80
6486;DHT22;3276;48.490;9.222;2022-10-28T07:01:04;13.60;32.90
6486;DHT22;3276;48.490;9.222;2022-10-28T07:03:30;13.60;32.40
6486;DHT22;3276;48.490;9.222;2022-10-28T07:05:57;13.60;32.60
6486;DHT22;3276;48.490;9.222;2022-10-28T07:08:23;13.70;31.80
6486;DHT22;3276;48.490;9.222;2022-10-28T07:10:53;13.70;32.60
6486;DHT22;3276;48.490;9.222;2022-10-28T07:13:19;13.80;32.30
6486;DHT22;3276;48.490;9.222;2022-10-28T07:15:50;13.90;32.20
6486;DHT22;3276;48.490;9.222;2022-10-28T07:18:15;13.90;32.40
6486;DHT22;3276;48.490;9.222;2022-10-28T07:20:41;14.00;32.60
6486;DHT22;3276;48.490;9.222;2022-10-28T07:23:07;14.10;32.20
6486;DHT22;3276;48.490;9.222;2022-10-28T07:25:32;14.20;30.80
6486;DHT22;3276;48.490;9.222;2022-10-28T07:27:59;14.40;30.80
6486;DHT22;3276;48.490;9.222;2022-10-28T07:30:26;14.60;29.90
6486;DHT22;3276;48.490;9.222;2022-10-28T07:32:52;14.70;29.50
6486;DHT22;3276;48.490;9.222;2022-10-28T07:35:17;14.90;27.60
6486;DHT22;3276;48.490;9.222;2022-10-28T07:37:43;15.10;26.10
6486;DHT22;3276;48.490;9.222;2022-10-28T07:40:09;15.30;26.20
6486;DHT22;3276;48.490;9.222;2022-10-28T07:42:34;15.50;26.00
6486;DHT22;3276;48.490;9.222;2022-10-28T07:45:00;15.50;25.40
6486;DHT22;3276;48.490;9.222;2022-10-28T07:47:26;15.60;23.60
6486;DHT22;3276;48.490;9.222;2022-10-28T07:49:51;15.60;22.70
6486;DHT22;3276;48.490;9.222;2022-10-28T07:52:19;15.60;23.10
6486;DHT22;3276;48.490;9.222;2022-10-28T07:54:45;15.70;22.30
6486;DHT22;3276;48.490;9.222;2022-10-28T07:57:10;15.50;22.60
6486;DHT22;3276;48.490;9.222;2022-10-28T07:59:36;15.60;22.20
6486;DHT22;3276;48.490;9.222;2022-10-28T08:02:02;15.60;22.70
6486;DHT22;3276;48.490;9.222;2022-10-28T08:04:31;15.60;23.30
6486;DHT22;3276;48.490;9.222;2022-10-28T08:06:57;15.70;22.30
6486;DHT22;3276;48.490;9.222;2022-10-28T08:09:22;15.70;22.70
6486;DHT22;3276;48.490;9.222;2022-10-28T08:11:48;15.90;22.40
6486;DHT22;3276;48.490;9.222;2022-10-28T08:14:14;15.90;22.40
6486;DHT22;3276;48.490;9.222;2022-10-28T08:16:39;16.10;22.50
6486;DHT22;3276;48.490;9.222;2022-10-28T08:19:05;16.20;21.70
6486;DHT22;3276;48.490;9.222;2022-10-28T08:21:31;16.20;21.40
6486;DHT22;3276;48.490;9.222;2022-10-28T08:23:56;16.20;21.60
6486;DHT22;3276;48.490;9.222;2022-10-28T08:26:22;16.20;21.40
6486;DHT22;3276;48.490;9.222;2022-10-28T08:28:47;16.30;21.20
6486;DHT22;3276;48.490;9.222;2022-10-28T08:31:13;16.30;21.30
6486;DHT22;3276;48.490;9.222;2022-10-28T08:33:41;16.40;21.00
6486;DHT22;3276;48.490;9.222;2022-10-28T08:36:13;16.60;20.60
6486;DHT22;3276;48.490;9.222;2022-10-28T08:38:39;16.80;19.80
6486;DHT22;3276;48.490;9.222;2022-10-28T08:46:45;17.50;19.10
6486;DHT22;3276;48.490;9.222;2022-10-28T08:49:15;17.70;17.10
6486;DHT22;3276;48.490;9.222;2022-10-28T08:51:53;18.00;16.60
6486;DHT22;3276;48.490;9.222;2022-10-28T08:54:59;18.20;15.40
6486;DHT22;3276;48.490;9.222;2022-10-28T08:57:51;18.40;14.50
6486;DHT22;3276;48.490;9.222;2022-10-28T09:00:25;18.50;15.50
6486;DHT22;3276;48.490;9.222;2022-10-28T09:05:45;18.70;14.00
6486;DHT22;3276;48.490;9.222;2022-10-28T09:08:22;18.80;13.70
6486;DHT22;3276;48.490;9.222;2022-10-28T09:11:02;18.90;13.50
6486;DHT22;3276;48.490;9.222;2022-10-28T09:21:08;19.40;13.70
6486;DHT22;3276;48.490;9.222;2022-10-28T09:23:46;19.50;13.20
6486;DHT22;3276;48.490;9.222;2022-10-28T09:26:36;19.60;12.60
6486;DHT22;3276;48.490;9.222;2022-10-28T09:31:47;19.80;11.90
6486;DHT22;3276;48.490;9.222;2022-10-28T09:34:43;20.00;11.40
6486;DHT22;3276;48.490;9.222;2022-10-28T09:37:18;19.90;11.60
6486;DHT22;3276;48.490;9.222;2022-10-28T09:39:55;19.80;11.60
6486;DHT22;3276;48.490;9.222;2022-10-28T09:42:27;19.80;12.30
6486;DHT22;3276;48.490;9.222;2022-10-28T09:44:57;19.80;12.90
6486;DHT22;3276;48.490;9.222;2022-10-28T09:47:36;19.60;11.80
6486;DHT22;3276;48.490;9.222;2022-10-28T09:50:14;19.50;16.40
6486;DHT22;3276;48.490;9.222;2022-10-28T09:55:19;19.20;12.90
6486;DHT22;3276;48.490;9.222;2022-10-28T09:57:45;19.20;13.30
6486;DHT22;3276;48.490;9.222;2022-10-28T10:00:12;19.10;13.70
6486;DHT22;3276;48.490;9.222;2022-10-28T10:02:39;18.80;14.90
6486;DHT22;3276;48.490;9.222;2022-10-28T10:05:16;18.60;15.20
6486;DHT22;3276;48.490;9.222;2022-10-28T10:07:46;18.70;15.60
6486;DHT22;3276;48.490;9.222;2022-10-28T10:10:16;18.90;14.60
6486;DHT22;3276;48.490;9.222;2022-10-28T10:12:47;18.90;14.80
6486;DHT22;3276;48.490;9.222;2022-10-28T10:15:24;19.00;15.40
6486;DHT22;3276;48.490;9.222;2022-10-28T10:17:51;19.10;14.50
6486;DHT22;3276;48.490;9.222;2022-10-28T10:20:20;19.30;14.50
6486;DHT22;3276;48.490;9.222;2022-10-28T10:22:47;19.40;13.60
6486;DHT22;3276;48.490;9.222;2022-10-28T10:27:54;19.60;13.40
6486;DHT22;3276;48.490;9.222;2022-10-28T10:30:35;19.70;13.60
6486;DHT22;3276;48.490;9.222;2022-10-28T10:33:02;20.00;12.70
6486;DHT22;3276;48.490;9.222;2022-10-28T10:35:38;20.20;12.30
6486;DHT22;3276;48.490;9.222;2022-10-28T10:38:05;20.40;11.40
6486;DHT22;3276;48.490;9.222;2022-10-28T10:40:39;20.40;11.40
6486;DHT22;3276;48.490;9.222;2022-10-28T10:48:23;20.70;10.60
6486;DHT22;3276;48.490;9.222;2022-10-28T10:50:49;20.70;10.00
6486;DHT22;3276;48.490;9.222;2022-10-28T10:55:56;21.00;9.80
6486;DHT22;3276;48.490;9.222;2022-10-28T10:58:24;21.30;9.80
6486;DHT22;3276;48.490;9.222;2022-10-28T11:00:52;21.70;8.80
6486;DHT22;3276;48.490;9.222;2022-10-28T11:03:34;21.90;8.80
6486;DHT22;3276;48.490;9.222;2022-10-28T11:06:05;22.00;7.30
6486;DHT22;3276;48.490;9.222;2022-10-28T11:08:40;21.90;8.00
6486;DHT22;3276;48.490;9.222;2022-10-28T11:11:10;21.80;7.60
6486;DHT22;3276;48.490;9.222;2022-10-28T11:13:36;21.60;8.70
6486;DHT22;3276;48.490;9.222;2022-10-28T11:16:04;21.70;8.80
6486;DHT22;3276;48.490;9.222;2022-10-28T11:18:40;21.70;8.80
6486;DHT22;3276;48.490;9.222;2022-10-28T11:27:03;21.40;8.50
6486;DHT22;3276;48.490;9.222;2022-10-28T11:29:31;21.40;8.90
6486;DHT22;3276;48.490;9.222;2022-10-28T11:37:22;21.20;9.60
6486;DHT22;3276;48.490;9.222;2022-10-28T11:42:25;21.10;10.60
6486;DHT22;3276;48.490;9.222;2022-10-28T11:45:18;21.10;9.50
6486;DHT22;3276;48.490;9.222;2022-10-28T11:50:51;21.30;8.90
6486;DHT22;3276;48.490;9.222;2022-10-28T11:53:42;21.30;9.10
6486;DHT22;3276;48.490;9.222;2022-10-28T11:56:31;21.50;9.20
6486;DHT22;3276;48.490;9.222;2022-10-28T12:06:59;21.90;8.80
6486;DHT22;3276;48.490;9.222;2022-10-28T12:09:47;22.00;9.00
6486;DHT22;3276;48.490;9.222;2022-10-28T12:12:25;22.20;9.10
6486;DHT22;3276;48.490;9.222;2022-10-28T12:17:49;22.50;7.80
6486;DHT22;3276;48.490;9.222;2022-10-28T12:20:45;22.60;7.70
6486;DHT22;3276;48.490;9.222;2022-10-28T12:23:12;22.70;7.40
6486;DHT22;3276;48.490;9.222;2022-10-28T12:25:44;22.80;7.80
6486;DHT22;3276;48.490;9.222;2022-10-28T12:28:41;22.90;8.00
6486;DHT22;3276;48.490;9.222;2022-10-28T12:31:18;23.10;8.10
6486;DHT22;3276;48.490;9.222;2022-10-28T12:33:48;23.20;7.30
6486;DHT22;3276;48.490;9.222;2022-10-28T12:37:12;23.30;7.30
6486;DHT22;3276;48.490;9.222;2022-10-28T12:39:40;23.20;7.80
6486;DHT22;3276;48.490;9.222;2022-10-28T12:44:43;23.40;6.70
6486;DHT22;3276;48.490;9.222;2022-10-28T12:55:55;23.80;6.90
6486;DHT22;3276;48.490;9.222;2022-10-28T12:58:19;23.80;6.90
6486;DHT22;3276;48.490;9.222;2022-10-28T13:00:50;23.70;7.20
6486;DHT22;3276;48.490;9.222;2022-10-28T13:03:17;23.70;7.00
6486;DHT22;3276;48.490;9.222;2022-10-28T13:11:28;23.70;6.80
6486;DHT22;3276;48.490;9.222;2022-10-28T13:22:32;23.70;7.80
6486;DHT22;3276;48.490;9.222;2022-10-28T13:27:43;23.60;8.30
6486;DHT22;3276;48.490;9.222;2022-10-28T13:30:17;23.70;8.40
6486;DHT22;3276;48.490;9.222;2022-10-28T13:32:44;23.70;9.00
6486;DHT22;3276;48.490;9.222;2022-10-28T13:35:21;23.60;8.80
6486;DHT22;3276;48.490;9.222;2022-10-28T13:37:50;23.60;8.90
6486;DHT22;3276;48.490;9.222;2022-10-28T13:42:47;23.60;9.20
6486;DHT22;3276;48.490;9.222;2022-10-28T13:45:51;23.70;8.90
6486;DHT22;3276;48.490;9.222;2022-10-28T13:56:21;23.80;9.30
6486;DHT22;3276;48.490;9.222;2022-10-28T13:58:53;23.70;9.30
6486;DHT22;3276;48.490;9.222;2022-10-28T14:01:46;23.60;10.00
6486;DHT22;3276;48.490;9.222;2022-10-28T14:04:39;23.70;9.10
6486;DHT22;3276;48.490;9.222;2022-10-28T14:07:21;23.70;9.30
6486;DHT22;3276;48.490;9.222;2022-10-28T14:09:51;23.80;9.10
6486;DHT22;3276;48.490;9.222;2022-10-28T14:12:28;23.70;8.60
6486;DHT22;3276;48.490;9.222;2022-10-28T14:15:01;23.70;8.20
6486;DHT22;3276;48.490;9.222;2022-10-28T14:17:42;23.70;8.40
6486;DHT22;3276;48.490;9.222;2022-10-28T14:22:45;23.80;8.00
6486;DHT22;3276;48.490;9.222;2022-10-28T14:33:31;23.50;8.40
6486;DHT22;3276;48.490;9.222;2022-10-28T14:44:34;23.20;9.50
6486;DHT22;3276;48.490;9.222;2022-10-28T14:47:07;23.00;10.20
6486;DHT22;3276;48.490;9.222;2022-10-28T14:50:03;22.90;10.80
6486;DHT22;3276;48.490;9.222;2022-10-28T14:52:34;22.90;10.50
6486;DHT22;3276;48.490;9.222;2022-10-28T14:55:04;22.80;11.00
6486;DHT22;3276;48.490;9.222;2022-10-28T14:57:32;22.70;11.70
6486;DHT22;3276;48.490;9.222;2022-10-28T15:00:05;22.70;11.40
6486;DHT22;3276;48.490;9.222;2022-10-28T15:02:32;22.70;11.50
6486;DHT22;3276;48.490;9.222;2022-10-28T15:07:28;22.70;11.80
6486;DHT22;3276;48.490;9.222;2022-10-28T15:09:54;22.60;13.20
6486;DHT22;3276;48.490;9.222;2022-10-28T15:12:21;22.60;13.40
6486;DHT22;3276;48.490;9.222;2022-10-28T15:14:52;22.50;13.70
6486;DHT22;3276;48.490;9.222;2022-10-28T15:17:21;22.40;13.80
6486;DHT22;3276;48.490;9.222;2022-10-28T15:19:50;22.30;14.60
6486;DHT22;3276;48.490;9.222;2022-10-28T15:22:30;22.20;14.60
6486;DHT22;3276;48.490;9.222;2022-10-28T15:27:27;21.90;17.90
6486;DHT22;3276;48.490;9.222;2022-10-28T15:29:53;21.80;17.80
6486;DHT22;3276;48.490;9.222;2022-10-28T15:34:45;21.60;17.60
6486;DHT22;3276;48.490;9.222;2022-10-28T15:37:15;21.50;18.10
6486;DHT22;3276;48.490;9.222;2022-10-28T15:39:42;21.50;18.00
6486;DHT22;3276;48.490;9.222;2022-10-28T15:42:40;21.40;18.30
6486;DHT22;3276;48.490;9.222;2022-10-28T15:45:15;21.30;19.10
6486;DHT22;3276;48.490;9.222;2022-10-28T15:47:43;21.20;19.50
6486;DHT22;3276;48.490;9.222;2022-10-28T15:52:46;21.10;19.80
6486;DHT22;3276;48.490;9.222;2022-10-28T15:55:28;21.10;19.80
6486;DHT22;3276;48.490;9.222;2022-10-28T15:58:00;21.00;19.50
6486;DHT22;3276;48.490;9.222;2022-10-28T16:00:33;20.90;19.90
6486;DHT22;3276;48.490;9.222;2022-10-28T16:03:01;20.80;20.10
6486;DHT22;3276;48.490;9.222;2022-10-28T16:08:17;20.60;20.40
6486;DHT22;3276;48.490;9.222;2022-10-28T16:10:56;20.50;20.80
6486;DHT22;3276;48.490;9.222;2022-10-28T16:13:35;20.40;21.20
6486;DHT22;3276;48.490;9.222;2022-10-28T16:16:12;20.30;21.10
6486;DHT22;3276;48.490;9.222;2022-10-28T16:18:43;20.20;21.10
6486;DHT22;3276;48.490;9.222;2022-10-28T16:21:22;20.20;20.20
6486;DHT22;3276;48.490;9.222;2022-10-28T16:23:53;20.00;20.30
6486;DHT22;3276;48.490;9.222;2022-10-28T16:26:24;19.90;18.70
6486;DHT22;3276;48.490;9.222;2022-10-28T16:28:50;19.80;17.50
6486;DHT22;3276;48.490;9.222;2022-10-28T16:31:17;19.70;17.00
6486;DHT22;3276;48.490;9.222;2022-10-28T16:33:43;19.60;16.60
6486;DHT22;3276;48.490;9.222;2022-10-28T16:36:09;19.50;16.40
6486;DHT22;3276;48.490;9.222;2022-10-28T16:38:35;19.50;16.20
6486;DHT22;3276;48.490;9.222;2022-10-28T16:41:02;19.40;16.10
6486;DHT22;3276;48.490;9.222;2022-10-28T16:43:29;19.30;16.10
6486;DHT22;3276;48.490;9.222;2022-10-28T16:45:58;19.30;16.10
6486;DHT22;3276;48.490;9.222;2022-10-28T16:48:26;19.30;16.10
6486;DHT22;3276;48.490;9.222;2022-10-28T16:51:03;19.20;15.30
6486;DHT22;3276;48.490;9.222;2022-10-28T16:53:30;19.20;14.60
6486;DHT22;3276;48.490;9.222;2022-10-28T16:55:55;19.20;14.20
6486;DHT22;3276;48.490;9.222;2022-10-28T16:58:27;19.20;13.60
6486;DHT22;3276;48.490;9.222;2022-10-28T17:00:53;19.20;12.90
6486;DHT22;3276;48.490;9.222;2022-10-28T17:03:18;19.20;13.10
6486;DHT22;3276;48.490;9.222;2022-10-28T17:05:45;19.10;13.50
6486;DHT22;3276;48.490;9.222;2022-10-28T17:08:11;19.10;13.40
6486;DHT22;3276;48.490;9.222;2022-10-28T17:10:37;19.00;13.70
6486;DHT22;3276;48.490;9.222;2022-10-28T17:13:10;19.00;13.80
6486;DHT22;3276;48.490;9.222;2022-10-28T17:15:36;18.90;13.90
6486;DHT22;3276;48.490;9.222;2022-10-28T17:18:02;18.90;13.70
6486;DHT22;3276;48.490;9.222;2022-10-28T17:20:27;18.90;13.60
6486;DHT22;3276;48.490;9.222;2022-10-28T17:22:53;18.80;13.60
6486;DHT22;3276;48.490;9.222;2022-10-28T17:25:19;18.80;13.70
6486;DHT22;3276;48.490;9.222;2022-10-28T17:27:44;18.70;13.50
6486;DHT22;3276;48.490;9.222;2022-10-28T17:30:16;18.70;13.70
6486;DHT22;3276;48.490;9.222;2022-10-28T17:32:43;18.60;13.90
6486;DHT22;3276;48.490;9.222;2022-10-28T17:35:09;18.50;14.20
6486;DHT22;3276;48.490;9.222;2022-10-28T17:37:35;18.50;14.20
6486;DHT22;3276;48.490;9.222;2022-10-28T17:40:00;18.40;14.30
6486;DHT22;3276;48.490;9.222;2022-10-28T17:42:27;18.40;14.20
6486;DHT22;3276;48.490;9.222;2022-10-28T17:44:52;18.40;14.40
6486;DHT22;3276;48.490;9.222;2022-10-28T17:47:18;18.40;14.40
6486;DHT22;3276;48.490;9.222;2022-10-28T17:49:44;18.30;14.50
6486;DHT22;3276;48.490;9.222;2022-10-28T17:52:10;18.20;14.80
6486;DHT22;3276;48.490;9.222;2022-10-28T17:54:36;18.20;14.90
6486;DHT22;3276;48.490;9.222;2022-10-28T17:57:01;18.10;15.20
6486;DHT22;3276;48.490;9.222;2022-10-28T17:59:27;18.00;15.20
6486;DHT22;3276;48.490;9.222;2022-10-28T18:01:53;18.00;15.20
6486;DHT22;3276;48.490;9.222;2022-10-28T18:04:19;17.90;15.10
6486;DHT22;3276;48.490;9.222;2022-10-28T18:06:47;17.90;15.10
6486;DHT22;3276;48.490;9.222;2022-10-28T18:09:12;17.90;15.10
6486;DHT22;3276;48.490;9.222;2022-10-28T18:11:38;17.90;15.10
6486;DHT22;3276;48.490;9.222;2022-10-28T18:14:04;17.90;15.10
6486;DHT22;3276;48.490;9.222;2022-10-28T18:16:30;17.90;15.10
6486;DHT22;3276;48.490;9.222;2022-10-28T18:18:56;18.00;15.20
6486;DHT22;3276;48.490;9.222;2022-10-28T18:21:23;18.00;15.20
6486;DHT22;3276;48.490;9.222;2022-10-28T18:23:52;17.90;15.10
6486;DHT22;3276;48.490;9.222;2022-10-28T18:26:18;18.00;15.20
6486;DHT22;3276;48.490;9.222;2022-10-28T18:28:44;18.00;15.20
6486;DHT22;3276;48.490;9.222;2022-10-28T18:31:12;17.90;15.10
6486;DHT22;3276;48.490;9.222;2022-10-28T18:33:39;17.80;15.50
6486;DHT22;3276;48.490;9.222;2022-10-28T18:36:09;17.80;15.90
6486;DHT22;3276;48.490;9.222;2022-10-28T18:38:34;17.80;16.00
6486;DHT22;3276;48.490;9.222;2022-10-28T18:41:00;17.70;16.20
6486;DHT22;3276;48.490;9.222;2022-10-28T18:43:26;17.70;16.40
6486;DHT22;3276;48.490;9.222;2022-10-28T18:45:52;17.60;16.60
6486;DHT22;3276;48.490;9.222;2022-10-28T18:48:18;17.60;16.70
6486;DHT22;3276;48.490;9.222;2022-10-28T18:50:54;17.50;16.90
6486;DHT22;3276;48.490;9.222;2022-10-28T18:53:19;17.40;17.20
6486;DHT22;3276;48.490;9.222;2022-10-28T18:55:46;17.30;17.50
6486;DHT22;3276;48.490;9.222;2022-10-28T18:58:11;17.20;17.90
6486;DHT22;3276;48.490;9.222;2022-10-28T19:00:38;17.20;18.20
6486;DHT22;3276;48.490;9.222;2022-10-28T19:03:04;17.10;18.40
6486;DHT22;3276;48.490;9.222;2022-10-28T19:05:31;17.10;18.60
6486;DHT22;3276;48.490;9.222;2022-10-28T19:07:56;17.00;18.90
6486;DHT22;3276;48.490;9.222;2022-10-28T19:10:22;17.00;18.90
6486;DHT22;3276;48.490;9.222;2022-10-28T19:12:47;17.00;18.90
6486;DHT22;3276;48.490;9.222;2022-10-28T19:15:14;16.90;18.80